sensor_id;sensor_type;location;lat;lon;timestamp;temperature;humidity
23637;DHT22;11995;50.842;4.456;2022-07-10T00:00:26;16.70;99.90
23637;DHT22;11995;50.842;4.456;2022-07-10T00:02:53;16.80;99.90
23637;DHT22;11995;50.842;4.456;2022-07-10T00:05:20;16.70;99.90
23637;DHT22;11995;50.842;4.456;2022-07-10T00:07:47;16.60;99.90
23637;DHT22;11995;50.842;4.456;2022-07-10T00:10:14;16.60;99.90
23637;DHT22;11995;50.842;4.456;2022-07-10T00:12:45;16.60;99.90
23637;DHT22;11995;50.842;4.456;2022-07-10T00:15:12;16.60;99.90
23637;DHT22;11995;50.842;4.456;2022-07-10T00:17:40;16.60;99.90
23637;DHT22;11995;50.842;4.456;2022-07-10T00:20:07;16.50;99.90
23637;DHT22;11995;50.842;4.456;2022-07-10T00:22:34;16.50;99.90
23637;DHT22;11995;50.842;4.456;2022-07-10T00:25:01;16.50;99.90
23637;DHT22;11995;50.842;4.456;2022-07-10T00:27:28;16.40;99.90
23637;DHT22;11995;50.842;4.456;2022-07-10T00:29:55;16.40;99.90
23637;DHT22;11995;50.842;4.456;2022-07-10T00:32:22;16.30;99.90
23637;DHT22;11995;50.842;4.456;2022-07-10T00:34:49;16.30;99.90
23637;DHT22;11995;50.842;4.456;2022-07-10T00:37:16;16.30;99.90
23637;DHT22;11995;50.842;4.456;2022-07-10T00:39:44;16.30;99.90
23637;DHT22;11995;50.842;4.456;2022-07-10T00:42:11;16.20;99.90
23637;DHT22;11995;50.842;4.456;2022-07-10T00:44:40;16.20;99.90
23637;DHT22;11995;50.842;4.456;2022-07-10T00:47:07;16.40;99.90
23637;DHT22;11995;50.842;4.456;2022-07-10T00:49:35;16.30;99.90
23637;DHT22;11995;50.842;4.456;2022-07-10T00:52:02;16.20;99.90
23637;DHT22;11995;50.842;4.456;2022-07-10T00:54:29;16.20;99.90
23637;DHT22;11995;50.842;4.456;2022-07-10T00:56:57;16.20;99.90
23637;DHT22;11995;50.842;4.456;2022-07-10T00:59:25;16.10;99.90
23637;DHT22;11995;50.842;4.456;2022-07-10T01:01:52;16.10;99.90
23637;DHT22;11995;50.842;4.456;2022-07-10T01:04:19;16.10;99.90
23637;DHT22;11995;50.842;4.456;2022-07-10T01:06:46;16.10;99.90
23637;DHT22;11995;50.842;4.456;2022-07-10T01:09:13;16.10;99.90
23637;DHT22;11995;50.842;4.456;2022-07-10T01:11:40;16.10;99.90
23637;DHT22;11995;50.842;4.456;2022-07-10T01:14:07;16.00;99.90
23637;DHT22;11995;50.842;4.456;2022-07-10T01:16:35;16.10;99.90
23637;DHT22;11995;50.842;4.456;2022-07-10T01:19:03;16.10;99.90
23637;DHT22;11995;50.842;4.456;2022-07-10T01:21:30;16.00;99.90
23637;DHT22;11995;50.842;4.456;2022-07-10T01:23:58;16.00;99.90
23637;DHT22;11995;50.842;4.456;2022-07-10T01:26:25;15.90;99.90
23637;DHT22;11995;50.842;4.456;2022-07-10T01:28:52;15.80;99.90
23637;DHT22;11995;50.842;4.456;2022-07-10T01:31:19;15.80;99.90
23637;DHT22;11995;50.842;4.456;2022-07-10T01:33:46;15.70;99.90
23637;DHT22;11995;50.842;4.456;2022-07-10T01:36:13;15.70;99.90
23637;DHT22;11995;50.842;4.456;2022-07-10T01:38:40;15.80;99.90
23637;DHT22;11995;50.842;4.456;2022-07-10T01:41:07;15.80;99.90
23637;DHT22;11995;50.842;4.456;2022-07-10T01:43:37;15.80;99.90
23637;DHT22;11995;50.842;4.456;2022-07-10T01:46:05;15.80;99.90
23637;DHT22;11995;50.842;4.456;2022-07-10T01:48:32;15.80;99.90
23637;DHT22;11995;50.842;4.456;2022-07-10T01:50:59;15.80;99.90
23637;DHT22;11995;50.842;4.456;2022-07-10T01:53:26;15.70;99.90
23637;DHT22;11995;50.842;4.456;2022-07-10T01:55:53;15.70;99.90
23637;DHT22;11995;50.842;4.456;2022-07-10T01:58:20;15.70;99.90
23637;DHT22;11995;50.842;4.456;2022-07-10T02:00:47;15.70;99.90
23637;DHT22;11995;50.842;4.456;2022-07-10T02:03:14;15.80;99.90
23637;DHT22;11995;50.842;4.456;2022-07-10T02:05:59;15.70;99.90
23637;DHT22;11995;50.842;4.456;2022-07-10T02:08:26;15.70;99.90
23637;DHT22;11995;50.842;4.456;2022-07-10T02:10:53;15.60;99.90
23637;DHT22;11995;50.842;4.456;2022-07-10T02:13:20;15.60;99.90
23637;DHT22;11995;50.842;4.456;2022-07-10T02:15:47;15.50;99.90
23637;DHT22;11995;50.842;4.456;2022-07-10T02:18:14;15.60;99.90
23637;DHT22;11995;50.842;4.456;2022-07-10T02:20:40;15.50;99.90
23637;DHT22;11995;50.842;4.456;2022-07-10T02:23:07;15.50;99.90
23637;DHT22;11995;50.842;4.456;2022-07-10T02:25:34;15.40;99.90
23637;DHT22;11995;50.842;4.456;2022-07-10T02:28:01;15.40;99.90
23637;DHT22;11995;50.842;4.456;2022-07-10T02:30:28;15.40;99.90
23637;DHT22;11995;50.842;4.456;2022-07-10T02:32:55;15.40;99.90
23637;DHT22;11995;50.842;4.456;2022-07-10T02:35:22;15.30;99.90
23637;DHT22;11995;50.842;4.456;2022-07-10T02:37:48;15.30;99.90
23637;DHT22;11995;50.842;4.456;2022-07-10T02:40:15;15.20;99.90
23637;DHT22;11995;50.842;4.456;2022-07-10T02:42:42;15.20;99.90
23637;DHT22;11995;50.842;4.456;2022-07-10T02:45:09;15.20;99.90
23637;DHT22;11995;50.842;4.456;2022-07-10T02:47:36;15.20;99.90
23637;DHT22;11995;50.842;4.456;2022-07-10T02:50:03;15.10;99.90
23637;DHT22;11995;50.842;4.456;2022-07-10T02:52:30;15.10;99.90
23637;DHT22;11995;50.842;4.456;2022-07-10T02:54:57;15.10;99.90
23637;DHT22;11995;50.842;4.456;2022-07-10T02:57:24;15.00;99.90
23637;DHT22;11995;50.842;4.456;2022-07-10T02:59:51;15.00;99.90
23637;DHT22;11995;50.842;4.456;2022-07-10T03:02:18;15.00;99.90
23637;DHT22;11995;50.842;4.456;2022-07-10T03:04:45;15.00;99.90
23637;DHT22;11995;50.842;4.456;2022-07-10T03:07:11;14.90;99.90
23637;DHT22;11995;50.842;4.456;2022-07-10T03:09:38;14.90;99.90
23637;DHT22;11995;50.842;4.456;2022-07-10T03:12:05;14.90;99.90
23637;DHT22;11995;50.842;4.456;2022-07-10T03:14:32;14.90;99.90
23637;DHT22;11995;50.842;4.456;2022-07-10T03:16:59;14.90;99.90
23637;DHT22;11995;50.842;4.456;2022-07-10T03:19:26;14.90;99.90
23637;DHT22;11995;50.842;4.456;2022-07-10T03:21:53;14.80;99.90
23637;DHT22;11995;50.842;4.456;2022-07-10T03:24:20;14.90;99.90
23637;DHT22;11995;50.842;4.456;2022-07-10T03:26:46;14.80;99.90
23637;DHT22;11995;50.842;4.456;2022-07-10T03:29:13;14.90;99.90
23637;DHT22;11995;50.842;4.456;2022-07-10T03:31:40;14.70;99.90
23637;DHT22;11995;50.842;4.456;2022-07-10T03:34:07;14.70;99.90
23637;DHT22;11995;50.842;4.456;2022-07-10T03:36:34;14.80;99.90
23637;DHT22;11995;50.842;4.456;2022-07-10T03:39:01;14.70;99.90
23637;DHT22;11995;50.842;4.456;2022-07-10T03:41:28;14.80;99.90
23637;DHT22;11995;50.842;4.456;2022-07-10T03:43:54;14.60;99.90
23637;DHT22;11995;50.842;4.456;2022-07-10T03:46:21;14.50;99.90
23637;DHT22;11995;50.842;4.456;2022-07-10T03:48:48;14.60;99.90
23637;DHT22;11995;50.842;4.456;2022-07-10T03:51:15;14.30;99.90
23637;DHT22;11995;50.842;4.456;2022-07-10T03:53:42;14.40;99.90
23637;DHT22;11995;50.842;4.456;2022-07-10T03:56:09;14.30;99.90
23637;DHT22;11995;50.842;4.456;2022-07-10T03:58:37;14.20;99.90
23637;DHT22;11995;50.842;4.456;2022-07-10T04:01:04;14.20;99.90
23637;DHT22;11995;50.842;4.456;2022-07-10T04:03:31;14.20;99.90
23637;DHT22;11995;50.842;4.456;2022-07-10T04:05:57;14.20;99.90
23637;DHT22;11995;50.842;4.456;2022-07-10T04:08:24;14.30;99.90
23637;DHT22;11995;50.842;4.456;2022-07-10T04:10:51;14.50;99.90
23637;DHT22;11995;50.842;4.456;2022-07-10T04:13:18;14.50;99.90
23637;DHT22;11995;50.842;4.456;2022-07-10T04:15:45;14.60;99.90
23637;DHT22;11995;50.842;4.456;2022-07-10T04:18:12;14.60;99.90
23637;DHT22;11995;50.842;4.456;2022-07-10T04:20:38;14.70;99.90
23637;DHT22;11995;50.842;4.456;2022-07-10T04:23:05;14.80;99.90
23637;DHT22;11995;50.842;4.456;2022-07-10T04:25:32;14.80;99.90
23637;DHT22;11995;50.842;4.456;2022-07-10T04:27:59;14.80;99.90
23637;DHT22;11995;50.842;4.456;2022-07-10T04:30:26;14.80;99.90
23637;DHT22;11995;50.842;4.456;2022-07-10T04:32:53;14.80;99.90
23637;DHT22;11995;50.842;4.456;2022-07-10T04:35:20;14.90;99.90
23637;DHT22;11995;50.842;4.456;2022-07-10T04:37:47;14.90;99.90
23637;DHT22;11995;50.842;4.456;2022-07-10T04:40:14;15.00;99.90
23637;DHT22;11995;50.842;4.456;2022-07-10T04:42:40;15.00;99.90
23637;DHT22;11995;50.842;4.456;2022-07-10T04:45:08;15.00;99.90
23637;DHT22;11995;50.842;4.456;2022-07-10T04:47:35;15.10;99.90
23637;DHT22;11995;50.842;4.456;2022-07-10T04:50:02;15.10;99.90
23637;DHT22;11995;50.842;4.456;2022-07-10T04:52:29;15.20;99.90
23637;DHT22;11995;50.842;4.456;2022-07-10T04:54:56;15.20;99.90
23637;DHT22;11995;50.842;4.456;2022-07-10T04:57:22;15.30;99.90
23637;DHT22;11995;50.842;4.456;2022-07-10T04:59:49;15.30;99.90
23637;DHT22;11995;50.842;4.456;2022-07-10T05:02:16;15.30;99.90
23637;DHT22;11995;50.842;4.456;2022-07-10T05:04:43;15.30;99.90
23637;DHT22;11995;50.842;4.456;2022-07-10T05:07:10;15.30;99.90
23637;DHT22;11995;50.842;4.456;2022-07-10T05:09:36;15.40;99.90
23637;DHT22;11995;50.842;4.456;2022-07-10T05:12:03;15.40;99.90
23637;DHT22;11995;50.842;4.456;2022-07-10T05:14:30;15.50;99.90
23637;DHT22;11995;50.842;4.456;2022-07-10T05:16:57;15.80;99.90
23637;DHT22;11995;50.842;4.456;2022-07-10T05:19:24;16.10;99.90
23637;DHT22;11995;50.842;4.456;2022-07-10T05:21:51;16.50;99.90
23637;DHT22;11995;50.842;4.456;2022-07-10T05:24:18;16.70;99.90
23637;DHT22;11995;50.842;4.456;2022-07-10T05:26:44;16.90;99.90
23637;DHT22;11995;50.842;4.456;2022-07-10T05:29:12;17.00;99.90
23637;DHT22;11995;50.842;4.456;2022-07-10T05:31:39;16.90;99.90
23637;DHT22;11995;50.842;4.456;2022-07-10T05:34:06;16.80;99.90
23637;DHT22;11995;50.842;4.456;2022-07-10T05:36:33;16.70;99.90
23637;DHT22;11995;50.842;4.456;2022-07-10T05:38:59;16.60;99.90
23637;DHT22;11995;50.842;4.456;2022-07-10T05:41:26;16.50;99.90
23637;DHT22;11995;50.842;4.456;2022-07-10T05:43:54;16.50;99.90
23637;DHT22;11995;50.842;4.456;2022-07-10T05:46:21;16.50;99.90
23637;DHT22;11995;50.842;4.456;2022-07-10T05:48:48;16.70;99.90
23637;DHT22;11995;50.842;4.456;2022-07-10T05:51:14;16.60;99.90
23637;DHT22;11995;50.842;4.456;2022-07-10T05:53:42;16.40;99.90
23637;DHT22;11995;50.842;4.456;2022-07-10T05:56:09;16.50;99.90
23637;DHT22;11995;50.842;4.456;2022-07-10T05:58:36;16.70;99.90
23637;DHT22;11995;50.842;4.456;2022-07-10T06:01:02;16.80;99.90
23637;DHT22;11995;50.842;4.456;2022-07-10T06:03:30;16.90;99.90
23637;DHT22;11995;50.842;4.456;2022-07-10T06:05:57;17.00;99.90
23637;DHT22;11995;50.842;4.456;2022-07-10T06:08:25;17.00;99.90
23637;DHT22;11995;50.842;4.456;2022-07-10T06:10:52;17.10;99.90
23637;DHT22;11995;50.842;4.456;2022-07-10T06:13:19;17.10;99.90
23637;DHT22;11995;50.842;4.456;2022-07-10T06:15:46;17.20;99.90
23637;DHT22;11995;50.842;4.456;2022-07-10T06:18:13;17.10;99.90
23637;DHT22;11995;50.842;4.456;2022-07-10T06:20:40;17.10;99.90
23637;DHT22;11995;50.842;4.456;2022-07-10T06:23:07;17.30;99.90
23637;DHT22;11995;50.842;4.456;2022-07-10T06:25:34;17.20;99.90
23637;DHT22;11995;50.842;4.456;2022-07-10T06:28:00;17.40;99.90
23637;DHT22;11995;50.842;4.456;2022-07-10T06:30:27;17.60;99.90
23637;DHT22;11995;50.842;4.456;2022-07-10T06:32:54;17.70;99.90
23637;DHT22;11995;50.842;4.456;2022-07-10T06:35:21;17.80;99.90
23637;DHT22;11995;50.842;4.456;2022-07-10T06:37:48;17.60;99.90
23637;DHT22;11995;50.842;4.456;2022-07-10T06:40:14;17.50;99.90
23637;DHT22;11995;50.842;4.456;2022-07-10T06:42:42;17.50;99.90
23637;DHT22;11995;50.842;4.456;2022-07-10T06:45:09;17.60;99.90
23637;DHT22;11995;50.842;4.456;2022-07-10T06:47:36;17.50;99.90
23637;DHT22;11995;50.842;4.456;2022-07-10T06:50:20;17.50;99.90
23637;DHT22;11995;50.842;4.456;2022-07-10T06:52:52;17.50;99.90
23637;DHT22;11995;50.842;4.456;2022-07-10T06:55:16;17.70;99.90
23637;DHT22;11995;50.842;4.456;2022-07-10T06:57:44;17.90;99.90
23637;DHT22;11995;50.842;4.456;2022-07-10T07:00:11;18.00;99.90
23637;DHT22;11995;50.842;4.456;2022-07-10T07:02:38;18.00;99.90
23637;DHT22;11995;50.842;4.456;2022-07-10T07:05:05;18.00;99.90
23637;DHT22;11995;50.842;4.456;2022-07-10T07:07:33;18.10;99.90
23637;DHT22;11995;50.842;4.456;2022-07-10T07:10:00;18.20;99.90
23637;DHT22;11995;50.842;4.456;2022-07-10T07:12:27;18.20;99.90
23637;DHT22;11995;50.842;4.456;2022-07-10T07:14:54;18.20;99.90
23637;DHT22;11995;50.842;4.456;2022-07-10T07:17:21;17.90;99.90
23637;DHT22;11995;50.842;4.456;2022-07-10T07:19:49;18.00;99.90
23637;DHT22;11995;50.842;4.456;2022-07-10T07:22:34;18.10;99.90
23637;DHT22;11995;50.842;4.456;2022-07-10T07:25:19;18.30;99.90
23637;DHT22;11995;50.842;4.456;2022-07-10T07:27:46;18.50;99.90
23637;DHT22;11995;50.842;4.456;2022-07-10T07:30:14;18.70;99.90
23637;DHT22;11995;50.842;4.456;2022-07-10T07:32:42;18.80;99.90
23637;DHT22;11995;50.842;4.456;2022-07-10T07:35:09;18.70;99.90
23637;DHT22;11995;50.842;4.456;2022-07-10T07:37:37;18.70;99.90
23637;DHT22;11995;50.842;4.456;2022-07-10T07:40:04;18.80;99.90
23637;DHT22;11995;50.842;4.456;2022-07-10T07:42:31;18.60;99.90
23637;DHT22;11995;50.842;4.456;2022-07-10T07:44:58;18.60;99.90
23637;DHT22;11995;50.842;4.456;2022-07-10T07:47:25;18.40;99.90
23637;DHT22;11995;50.842;4.456;2022-07-10T07:49:52;18.20;99.90
23637;DHT22;11995;50.842;4.456;2022-07-10T07:52:19;18.20;99.90
23637;DHT22;11995;50.842;4.456;2022-07-10T07:54:46;18.50;99.90
23637;DHT22;11995;50.842;4.456;2022-07-10T07:57:12;18.70;99.90
23637;DHT22;11995;50.842;4.456;2022-07-10T07:59:40;18.80;99.90
23637;DHT22;11995;50.842;4.456;2022-07-10T08:02:06;19.20;99.90
23637;DHT22;11995;50.842;4.456;2022-07-10T08:04:33;19.30;99.90
23637;DHT22;11995;50.842;4.456;2022-07-10T08:07:01;19.50;99.90
23637;DHT22;11995;50.842;4.456;2022-07-10T08:09:28;19.30;99.90
23637;DHT22;11995;50.842;4.456;2022-07-10T08:11:55;19.00;99.90
23637;DHT22;11995;50.842;4.456;2022-07-10T08:14:21;19.20;99.90
23637;DHT22;11995;50.842;4.456;2022-07-10T08:16:48;19.40;99.90
23637;DHT22;11995;50.842;4.456;2022-07-10T08:19:16;19.60;99.90
23637;DHT22;11995;50.842;4.456;2022-07-10T08:21:43;19.60;99.90
23637;DHT22;11995;50.842;4.456;2022-07-10T08:24:10;19.30;99.90
23637;DHT22;11995;50.842;4.456;2022-07-10T08:26:38;19.30;99.90
23637;DHT22;11995;50.842;4.456;2022-07-10T08:29:04;19.50;99.90
23637;DHT22;11995;50.842;4.456;2022-07-10T08:31:31;19.60;99.90
23637;DHT22;11995;50.842;4.456;2022-07-10T08:33:59;19.80;99.90
23637;DHT22;11995;50.842;4.456;2022-07-10T08:36:26;20.10;99.90
23637;DHT22;11995;50.842;4.456;2022-07-10T08:38:53;20.20;99.90
23637;DHT22;11995;50.842;4.456;2022-07-10T08:41:24;20.30;99.90
23637;DHT22;11995;50.842;4.456;2022-07-10T08:43:52;20.30;99.90
23637;DHT22;11995;50.842;4.456;2022-07-10T08:46:19;20.20;99.90
23637;DHT22;11995;50.842;4.456;2022-07-10T08:48:49;20.10;99.90
23637;DHT22;11995;50.842;4.456;2022-07-10T08:51:23;19.90;99.90
23637;DHT22;11995;50.842;4.456;2022-07-10T08:53:45;20.20;99.90
23637;DHT22;11995;50.842;4.456;2022-07-10T08:56:15;20.40;99.90
23637;DHT22;11995;50.842;4.456;2022-07-10T08:58:42;20.60;99.90
23637;DHT22;11995;50.842;4.456;2022-07-10T09:01:09;20.10;99.90
23637;DHT22;11995;50.842;4.456;2022-07-10T09:03:35;20.30;99.90
23637;DHT22;11995;50.842;4.456;2022-07-10T09:06:04;20.20;99.90
23637;DHT22;11995;50.842;4.456;2022-07-10T09:08:31;20.00;99.90
23637;DHT22;11995;50.842;4.456;2022-07-10T09:11:21;20.10;99.90
23637;DHT22;11995;50.842;4.456;2022-07-10T09:13:27;20.50;99.90
23637;DHT22;11995;50.842;4.456;2022-07-10T09:15:54;20.60;99.90
23637;DHT22;11995;50.842;4.456;2022-07-10T09:18:24;20.60;99.90
23637;DHT22;11995;50.842;4.456;2022-07-10T09:20:51;20.70;99.90
23637;DHT22;11995;50.842;4.456;2022-07-10T09:23:19;20.60;99.90
23637;DHT22;11995;50.842;4.456;2022-07-10T09:25:51;20.70;99.90
23637;DHT22;11995;50.842;4.456;2022-07-10T09:28:20;20.70;99.90
23637;DHT22;11995;50.842;4.456;2022-07-10T09:30:51;20.60;99.90
23637;DHT22;11995;50.842;4.456;2022-07-10T09:33:25;20.40;99.90
23637;DHT22;11995;50.842;4.456;2022-07-10T09:36:03;20.70;99.90
23637;DHT22;11995;50.842;4.456;2022-07-10T09:41:26;21.30;99.90
23637;DHT22;11995;50.842;4.456;2022-07-10T09:43:58;21.20;99.90
23637;DHT22;11995;50.842;4.456;2022-07-10T09:46:47;21.20;99.90
23637;DHT22;11995;50.842;4.456;2022-07-10T09:49:07;21.20;99.90
23637;DHT22;11995;50.842;4.456;2022-07-10T09:51:36;21.40;99.90
23637;DHT22;11995;50.842;4.456;2022-07-10T09:54:04;21.60;99.90
23637;DHT22;11995;50.842;4.456;2022-07-10T09:56:37;21.40;99.90
23637;DHT22;11995;50.842;4.456;2022-07-10T09:59:00;21.30;99.90
23637;DHT22;11995;50.842;4.456;2022-07-10T10:01:28;21.40;99.90
23637;DHT22;11995;50.842;4.456;2022-07-10T10:03:57;21.50;99.90
23637;DHT22;11995;50.842;4.456;2022-07-10T10:06:26;21.20;99.90
23637;DHT22;11995;50.842;4.456;2022-07-10T10:09:04;21.40;99.90
23637;DHT22;11995;50.842;4.456;2022-07-10T10:11:35;21.30;99.90
23637;DHT22;11995;50.842;4.456;2022-07-10T10:14:04;21.20;99.90
23637;DHT22;11995;50.842;4.456;2022-07-10T10:16:32;21.00;99.90
23637;DHT22;11995;50.842;4.456;2022-07-10T10:18:59;21.10;99.90
23637;DHT22;11995;50.842;4.456;2022-07-10T10:21:47;21.10;99.90
23637;DHT22;11995;50.842;4.456;2022-07-10T10:24:14;21.60;99.90
23637;DHT22;11995;50.842;4.456;2022-07-10T10:26:42;21.70;99.90
23637;DHT22;11995;50.842;4.456;2022-07-10T10:29:12;21.80;99.90
23637;DHT22;11995;50.842;4.456;2022-07-10T10:31:38;21.80;99.90
23637;DHT22;11995;50.842;4.456;2022-07-10T10:34:06;21.80;99.90
23637;DHT22;11995;50.842;4.456;2022-07-10T10:39:09;21.80;99.90
23637;DHT22;11995;50.842;4.456;2022-07-10T10:41:37;21.80;99.90
23637;DHT22;11995;50.842;4.456;2022-07-10T10:49:25;22.00;99.90
23637;DHT22;11995;50.842;4.456;2022-07-10T10:51:59;21.90;99.90
23637;DHT22;11995;50.842;4.456;2022-07-10T10:54:26;21.90;99.90
23637;DHT22;11995;50.842;4.456;2022-07-10T10:57:12;22.00;99.90
23637;DHT22;11995;50.842;4.456;2022-07-10T10:59:48;22.00;99.90
23637;DHT22;11995;50.842;4.456;2022-07-10T11:02:22;22.10;99.90
23637;DHT22;11995;50.842;4.456;2022-07-10T11:04:49;22.00;99.90
23637;DHT22;11995;50.842;4.456;2022-07-10T11:13:00;22.40;99.80
23637;DHT22;11995;50.842;4.456;2022-07-10T11:15:23;22.30;99.90
23637;DHT22;11995;50.842;4.456;2022-07-10T11:17:50;22.30;99.90
23637;DHT22;11995;50.842;4.456;2022-07-10T11:20:17;22.20;99.90
23637;DHT22;11995;50.842;4.456;2022-07-10T11:25:42;22.20;99.90
23637;DHT22;11995;50.842;4.456;2022-07-10T11:28:11;22.60;99.90
23637;DHT22;11995;50.842;4.456;2022-07-10T11:30:48;22.40;99.90
23637;DHT22;11995;50.842;4.456;2022-07-10T11:33:15;22.50;99.90
23637;DHT22;11995;50.842;4.456;2022-07-10T11:35:46;22.70;99.80
23637;DHT22;11995;50.842;4.456;2022-07-10T11:38:24;22.90;99.70
23637;DHT22;11995;50.842;4.456;2022-07-10T11:40:42;23.00;99.00
23637;DHT22;11995;50.842;4.456;2022-07-10T11:43:09;23.00;99.10
23637;DHT22;11995;50.842;4.456;2022-07-10T11:45:37;22.90;99.40
23637;DHT22;11995;50.842;4.456;2022-07-10T11:48:04;22.70;99.70
23637;DHT22;11995;50.842;4.456;2022-07-10T11:50:37;22.80;99.20
23637;DHT22;11995;50.842;4.456;2022-07-10T11:53:04;22.40;99.90
23637;DHT22;11995;50.842;4.456;2022-07-10T11:55:32;22.10;99.90
23637;DHT22;11995;50.842;4.456;2022-07-10T11:58:00;22.10;99.90
23637;DHT22;11995;50.842;4.456;2022-07-10T12:00:28;22.20;99.90
23637;DHT22;11995;50.842;4.456;2022-07-10T12:02:56;22.50;99.90
23637;DHT22;11995;50.842;4.456;2022-07-10T12:05:30;22.70;99.60
23637;DHT22;11995;50.842;4.456;2022-07-10T12:07:57;22.40;99.70
23637;DHT22;11995;50.842;4.456;2022-07-10T12:10:28;22.60;99.90
23637;DHT22;11995;50.842;4.456;2022-07-10T12:15:41;22.90;99.40
23637;DHT22;11995;50.842;4.456;2022-07-10T12:18:04;23.10;99.00
23637;DHT22;11995;50.842;4.456;2022-07-10T12:20:34;22.70;99.20
23637;DHT22;11995;50.842;4.456;2022-07-10T12:23:00;22.70;99.50
23637;DHT22;11995;50.842;4.456;2022-07-10T12:25:27;22.60;99.20
23637;DHT22;11995;50.842;4.456;2022-07-10T12:27:57;22.80;99.50
23637;DHT22;11995;50.842;4.456;2022-07-10T12:30:46;23.00;98.80
23637;DHT22;11995;50.842;4.456;2022-07-10T12:32:52;23.10;99.30
23637;DHT22;11995;50.842;4.456;2022-07-10T12:35:22;23.10;99.00
23637;DHT22;11995;50.842;4.456;2022-07-10T12:37:49;23.00;99.40
23637;DHT22;11995;50.842;4.456;2022-07-10T12:40:32;23.10;99.50
23637;DHT22;11995;50.842;4.456;2022-07-10T12:43:03;22.70;98.90
23637;DHT22;11995;50.842;4.456;2022-07-10T12:45:31;22.30;99.50
23637;DHT22;11995;50.842;4.456;2022-07-10T12:47:59;22.40;99.70
23637;DHT22;11995;50.842;4.456;2022-07-10T12:50:26;22.50;99.30
23637;DHT22;11995;50.842;4.456;2022-07-10T12:53:08;22.40;99.10
23637;DHT22;11995;50.842;4.456;2022-07-10T12:55:36;22.40;99.60
23637;DHT22;11995;50.842;4.456;2022-07-10T12:58:07;22.50;99.50
23637;DHT22;11995;50.842;4.456;2022-07-10T13:00:46;22.80;99.60
23637;DHT22;11995;50.842;4.456;2022-07-10T13:03:17;22.90;99.30
23637;DHT22;11995;50.842;4.456;2022-07-10T13:05:45;23.20;98.70
23637;DHT22;11995;50.842;4.456;2022-07-10T13:08:15;23.20;98.50
23637;DHT22;11995;50.842;4.456;2022-07-10T13:10:51;23.10;98.40
23637;DHT22;11995;50.842;4.456;2022-07-10T13:13:18;23.00;98.50
23637;DHT22;11995;50.842;4.456;2022-07-10T13:15:45;23.10;97.80
23637;DHT22;11995;50.842;4.456;2022-07-10T13:18:14;23.20;97.60
23637;DHT22;11995;50.842;4.456;2022-07-10T13:20:43;23.30;97.60
23637;DHT22;11995;50.842;4.456;2022-07-10T13:23:11;23.20;98.10
23637;DHT22;11995;50.842;4.456;2022-07-10T13:25:38;23.30;98.30
23637;DHT22;11995;50.842;4.456;2022-07-10T13:28:05;23.20;97.90
23637;DHT22;11995;50.842;4.456;2022-07-10T13:30:33;23.30;98.30
23637;DHT22;11995;50.842;4.456;2022-07-10T13:33:00;23.30;98.20
23637;DHT22;11995;50.842;4.456;2022-07-10T13:35:27;23.30;98.40
23637;DHT22;11995;50.842;4.456;2022-07-10T13:37:55;23.60;97.60
23637;DHT22;11995;50.842;4.456;2022-07-10T13:40:24;23.70;97.40
23637;DHT22;11995;50.842;4.456;2022-07-10T13:42:51;23.60;97.70
23637;DHT22;11995;50.842;4.456;2022-07-10T13:45:19;23.60;97.50
23637;DHT22;11995;50.842;4.456;2022-07-10T13:47:47;23.70;97.60
23637;DHT22;11995;50.842;4.456;2022-07-10T13:50:14;23.60;98.10
23637;DHT22;11995;50.842;4.456;2022-07-10T13:52:41;23.80;97.70
23637;DHT22;11995;50.842;4.456;2022-07-10T13:55:08;23.70;97.30
23637;DHT22;11995;50.842;4.456;2022-07-10T13:57:35;23.80;97.00
23637;DHT22;11995;50.842;4.456;2022-07-10T14:00:02;23.70;96.60
23637;DHT22;11995;50.842;4.456;2022-07-10T14:02:29;23.80;96.80
23637;DHT22;11995;50.842;4.456;2022-07-10T14:04:56;23.80;96.80
23637;DHT22;11995;50.842;4.456;2022-07-10T14:07:23;23.70;97.20
23637;DHT22;11995;50.842;4.456;2022-07-10T14:09:49;23.70;97.40
23637;DHT22;11995;50.842;4.456;2022-07-10T14:12:16;23.70;97.60
23637;DHT22;11995;50.842;4.456;2022-07-10T14:14:43;23.70;97.40
23637;DHT22;11995;50.842;4.456;2022-07-10T14:17:10;23.30;97.50
23637;DHT22;11995;50.842;4.456;2022-07-10T14:19:38;23.40;97.50
23637;DHT22;11995;50.842;4.456;2022-07-10T14:22:07;23.30;97.30
23637;DHT22;11995;50.842;4.456;2022-07-10T14:24:35;23.50;97.10
23637;DHT22;11995;50.842;4.456;2022-07-10T14:27:01;23.40;97.50
23637;DHT22;11995;50.842;4.456;2022-07-10T14:29:29;23.50;97.50
23637;DHT22;11995;50.842;4.456;2022-07-10T14:31:55;23.40;97.10
23637;DHT22;11995;50.842;4.456;2022-07-10T14:34:23;23.40;97.00
23637;DHT22;11995;50.842;4.456;2022-07-10T14:36:51;23.40;97.10
23637;DHT22;11995;50.842;4.456;2022-07-10T14:39:18;23.20;97.80
23637;DHT22;11995;50.842;4.456;2022-07-10T14:41:44;23.30;97.90
23637;DHT22;11995;50.842;4.456;2022-07-10T14:44:11;23.30;97.90
23637;DHT22;11995;50.842;4.456;2022-07-10T14:46:38;23.50;97.00
23637;DHT22;11995;50.842;4.456;2022-07-10T14:49:05;23.60;96.80
23637;DHT22;11995;50.842;4.456;2022-07-10T14:51:32;23.70;96.90
23637;DHT22;11995;50.842;4.456;2022-07-10T14:54:00;23.70;96.90
23637;DHT22;11995;50.842;4.456;2022-07-10T14:56:29;23.70;96.80
23637;DHT22;11995;50.842;4.456;2022-07-10T14:58:56;23.60;97.10
23637;DHT22;11995;50.842;4.456;2022-07-10T15:01:22;23.70;97.20
23637;DHT22;11995;50.842;4.456;2022-07-10T15:03:49;23.80;97.60
23637;DHT22;11995;50.842;4.456;2022-07-10T15:06:16;23.60;97.10
23637;DHT22;11995;50.842;4.456;2022-07-10T15:08:43;23.70;97.10
23637;DHT22;11995;50.842;4.456;2022-07-10T15:11:10;23.50;96.70
23637;DHT22;11995;50.842;4.456;2022-07-10T15:13:37;23.60;96.70
23637;DHT22;11995;50.842;4.456;2022-07-10T15:16:04;23.30;96.80
23637;DHT22;11995;50.842;4.456;2022-07-10T15:18:30;23.30;97.10
23637;DHT22;11995;50.842;4.456;2022-07-10T15:20:57;23.30;97.40
23637;DHT22;11995;50.842;4.456;2022-07-10T15:23:24;23.40;97.80
23637;DHT22;11995;50.842;4.456;2022-07-10T15:25:53;23.30;97.30
23637;DHT22;11995;50.842;4.456;2022-07-10T15:28:20;23.30;97.30
23637;DHT22;11995;50.842;4.456;2022-07-10T15:30:47;23.50;96.80
23637;DHT22;11995;50.842;4.456;2022-07-10T15:33:13;23.40;96.90
23637;DHT22;11995;50.842;4.456;2022-07-10T15:35:40;23.50;97.10
23637;DHT22;11995;50.842;4.456;2022-07-10T15:38:07;23.80;96.40
23637;DHT22;11995;50.842;4.456;2022-07-10T15:40:34;23.70;96.90
23637;DHT22;11995;50.842;4.456;2022-07-10T15:43:01;23.80;96.90
23637;DHT22;11995;50.842;4.456;2022-07-10T15:45:28;24.00;96.80
23637;DHT22;11995;50.842;4.456;2022-07-10T15:47:55;23.80;97.20
23637;DHT22;11995;50.842;4.456;2022-07-10T15:50:22;24.00;96.40
23637;DHT22;11995;50.842;4.456;2022-07-10T15:52:49;24.20;96.00
23637;DHT22;11995;50.842;4.456;2022-07-10T15:55:16;24.20;95.60